Time;durP1;ratioP1;P1;durP2;ratioP2;P2;SDS_P1;SDS_P2;PMS_P1;PMS_P2;Temp;Humidity;BMP_temperature;BMP_pressure;BME280_temperature;BME280_humidity;BME280_pressure;Samples;Min_cycle;Max_cycle;Signal;HPM_P1;HPM_P2
2022/05/01 00:00:44;;;;;;;40.50;30.03;;;;;;;7.41;100.00;96033.31;4979898;28;20192;-77
2022/05/01 00:03:30;;;;;;;44.63;29.17;;;;;;;7.39;100.00;96027.47;4979095;28;20540;-77
2022/05/01 00:05:54;;;;;;;44.27;29.93;;;;;;;7.36;100.00;96035.47;4986992;28;20187;-77
2022/05/01 00:08:20;;;;;;;42.17;29.73;;;;;;;7.33;100.00;96035.66;5002794;28;20203;-78
2022/05/01 00:10:45;;;;;;;41.53;30.67;;;;;;;7.34;100.00;96032.16;4982240;28;20296;-78
2022/05/01 00:13:11;;;;;;;47.27;30.77;;;;;;;7.33;100.00;96031.34;4976522;28;20216;-78
2022/05/01 00:15:37;;;;;;;47.27;30.50;;;;;;;7.23;100.00;96030.38;4994424;28;20191;-78
2022/05/01 00:18:03;;;;;;;46.50;30.57;;;;;;;7.25;100.00;96025.13;4993269;28;20184;-78
2022/05/01 00:20:28;;;;;;;41.27;31.83;;;;;;;7.31;100.00;96024.63;4977017;28;20175;-78
2022/05/01 00:22:53;;;;;;;44.37;30.37;;;;;;;7.34;100.00;96021.84;4976351;28;20176;-78
2022/05/01 00:25:18;;;;;;;45.20;31.20;;;;;;;7.25;100.00;96032.88;4976909;28;20180;-78
2022/05/01 00:27:44;;;;;;;48.50;32.63;;;;;;;7.32;100.00;96026.28;4976437;28;20188;-78
2022/05/01 00:30:09;;;;;;;49.80;31.63;;;;;;;7.33;100.00;96020.16;4992920;28;20203;-78
2022/05/01 00:36:25;;;;;;;55.30;34.40;;;;;;;7.32;100.00;96023.69;4991315;28;20591;-78
2022/05/01 00:38:04;;;;;;;66.33;36.10;;;;;;;7.32;100.00;96016.75;4994327;28;20219;-78
2022/05/01 00:40:30;;;;;;;55.90;34.73;;;;;;;7.34;100.00;96017.50;4992837;28;20179;-78
2022/05/01 00:43:00;;;;;;;56.57;34.00;;;;;;;7.45;100.00;96019.25;4992934;28;20180;-77
2022/05/01 00:45:25;;;;;;;54.43;34.77;;;;;;;7.37;100.00;96014.66;4992529;28;20555;-77
2022/05/01 00:47:50;;;;;;;64.00;36.27;;;;;;;7.33;100.00;96012.41;4992403;28;20179;-78
2022/05/01 00:50:16;;;;;;;60.50;35.90;;;;;;;7.32;100.00;96018.53;4975951;28;20240;-77
2022/05/01 00:52:42;;;;;;;61.20;35.40;;;;;;;7.31;100.00;96011.72;4993083;28;20212;-77
2022/05/01 00:55:07;;;;;;;54.80;36.00;;;;;;;7.30;100.00;96015.25;4976422;28;20199;-78
2022/05/01 00:57:33;;;;;;;67.23;37.60;;;;;;;7.29;100.00;96014.41;4992607;28;20192;-78
2022/05/01 00:59:58;;;;;;;60.53;35.13;;;;;;;7.28;100.00;96017.13;4976222;28;20286;-78
2022/05/01 01:02:24;;;;;;;70.43;37.03;;;;;;;7.32;100.00;96019.34;4991774;28;20262;-78
2022/05/01 01:04:49;;;;;;;63.93;38.10;;;;;;;7.33;100.00;96022.75;4975817;28;20251;-78
2022/05/01 01:07:15;;;;;;;62.50;36.80;;;;;;;7.30;100.00;96016.06;4993580;28;20198;-78
2022/05/01 01:09:40;;;;;;;58.73;35.13;;;;;;;7.27;100.00;96016.31;4991948;28;20203;-78
2022/05/01 01:15:08;;;;;;;61.07;35.67;;;;;;;7.28;100.00;96017.94;4992218;28;20198;-78
2022/05/01 01:17:33;;;;;;;55.00;35.43;;;;;;;7.27;100.00;96013.72;4993453;28;20186;-78
2022/05/01 01:19:59;;;;;;;55.70;34.80;;;;;;;7.34;100.00;96019.25;4975447;28;20200;-78
2022/05/01 01:22:24;;;;;;;58.40;36.03;;;;;;;7.27;100.00;96015.47;4975331;28;20195;-78
2022/05/01 01:24:49;;;;;;;54.73;34.37;;;;;;;7.29;100.00;96011.00;4975615;28;20183;-78
2022/05/01 01:27:15;;;;;;;58.57;33.37;;;;;;;7.29;100.00;96008.44;4975722;28;20192;-78
2022/05/01 01:32:25;;;;;;;56.27;34.57;;;;;;;7.21;100.00;96001.25;4977707;28;20217;-78
2022/05/01 01:34:51;;;;;;;58.43;33.90;;;;;;;7.23;100.00;96008.88;4975286;28;20179;-78
2022/05/01 01:37:16;;;;;;;56.17;34.40;;;;;;;7.20;100.00;95998.78;4976371;28;20210;-76
2022/05/01 01:39:43;;;;;;;53.33;33.67;;;;;;;7.30;100.00;95997.16;4960921;28;20246;-78
2022/05/01 01:42:09;;;;;;;60.13;34.87;;;;;;;7.32;100.00;95997.84;4975720;28;20184;-78
2022/05/01 01:44:38;;;;;;;61.03;37.93;;;;;;;7.28;100.00;95993.88;4992640;28;20223;-77
2022/05/01 01:47:04;;;;;;;60.23;36.43;;;;;;;7.32;100.00;95990.09;4975615;28;20178;-78
2022/05/01 01:49:30;;;;;;;58.33;35.80;;;;;;;7.25;100.00;95982.03;4975590;28;20203;-78
2022/05/01 01:51:55;;;;;;;56.37;35.90;;;;;;;7.12;100.00;95983.06;4974962;28;20793;-78
2022/05/01 01:54:20;;;;;;;57.13;36.27;;;;;;;7.12;100.00;95985.63;4992776;28;20211;-78
2022/05/01 01:56:46;;;;;;;67.80;37.43;;;;;;;7.06;100.00;95981.75;4975386;28;20301;-78
2022/05/01 01:59:11;;;;;;;62.63;37.43;;;;;;;7.03;100.00;95981.97;4958874;28;20702;-78
2022/05/01 02:01:40;;;;;;;64.63;40.13;;;;;;;7.00;100.00;95982.22;4974799;28;20179;-77
2022/05/01 02:04:05;;;;;;;62.73;37.60;;;;;;;7.05;100.00;95983.50;4975122;28;20176;-78
2022/05/01 02:06:30;;;;;;;62.53;37.03;;;;;;;7.05;100.00;95986.09;4975537;28;20670;-78
2022/05/01 02:08:58;;;;;;;63.83;38.50;;;;;;;6.93;100.00;95981.84;4992554;28;20687;-78
2022/05/01 02:11:24;;;;;;;64.50;38.10;;;;;;;6.89;100.00;95974.44;4992053;28;20176;-78
2022/05/01 02:13:50;;;;;;;63.67;37.40;;;;;;;6.81;100.00;95972.44;4974923;28;20293;-78
2022/05/01 02:16:17;;;;;;;67.67;38.20;;;;;;;6.78;100.00;95977.81;4959044;28;20230;-77
2022/05/01 02:18:42;;;;;;;71.27;40.60;;;;;;;6.78;100.00;95980.41;4975236;28;20203;-78
2022/05/01 02:23:51;;;;;;;76.60;40.63;;;;;;;6.78;100.00;95983.00;4977956;28;20551;-78
2022/05/01 02:26:17;;;;;;;70.90;39.17;;;;;;;6.82;100.00;95980.06;4992668;28;20176;-78
2022/05/01 02:28:42;;;;;;;62.93;37.17;;;;;;;6.85;100.00;95970.44;4958879;28;20195;-78
2022/05/01 02:31:07;;;;;;;68.13;39.53;;;;;;;6.87;100.00;95977.13;4990922;28;20547;-77
2022/05/01 02:33:33;;;;;;;72.67;40.43;;;;;;;6.89;100.00;95980.44;4974905;28;20219;-78
2022/05/01 02:35:58;;;;;;;62.90;38.93;;;;;;;6.96;100.00;95975.63;4975215;28;20172;-78
2022/05/01 02:38:23;;;;;;;66.33;39.40;;;;;;;6.97;100.00;95972.94;4975052;28;20684;-78
2022/05/01 02:40:49;;;;;;;67.37;39.73;;;;;;;7.06;100.00;95977.41;4975112;28;20180;-78
2022/05/01 02:43:14;;;;;;;60.33;37.13;;;;;;;7.06;100.00;95972.25;4974651;28;20644;-78
2022/05/01 02:45:40;;;;;;;69.23;38.80;;;;;;;7.07;100.00;95971.31;4975199;28;20191;-78
2022/05/01 02:48:06;;;;;;;60.40;36.47;;;;;;;7.07;100.00;95973.91;4992497;28;20295;-78
2022/05/01 02:50:31;;;;;;;64.23;37.07;;;;;;;7.06;100.00;95974.00;4977272;28;20176;-77
2022/05/01 02:52:57;;;;;;;65.93;38.67;;;;;;;7.10;100.00;95962.50;4995590;28;20262;-76
2022/05/01 02:55:22;;;;;;;59.70;36.67;;;;;;;7.09;100.00;95961.69;4978980;28;20176;-77
2022/05/01 02:57:48;;;;;;;60.53;38.40;;;;;;;7.13;100.00;95959.69;4996179;28;20259;-78
2022/05/01 03:00:16;;;;;;;57.17;34.77;;;;;;;7.13;100.00;95959.69;4978769;28;20172;-78
2022/05/01 03:02:46;;;;;;;59.93;36.03;;;;;;;7.14;100.00;95963.09;4978581;28;20168;-78
2022/05/01 03:05:12;;;;;;;59.70;36.60;;;;;;;7.02;100.00;95960.50;4978737;28;20176;-78
2022/05/01 03:07:37;;;;;;;60.63;37.33;;;;;;;7.04;100.00;95960.38;4978774;28;20279;-77
2022/05/01 03:10:03;;;;;;;56.03;35.50;;;;;;;7.10;100.00;95965.91;4996164;28;20191;-77
2022/05/01 03:12:29;;;;;;;56.30;35.23;;;;;;;7.07;100.00;95961.00;4977843;28;20258;-78
2022/05/01 03:14:54;;;;;;;55.90;35.37;;;;;;;7.09;100.00;95961.69;4978348;28;20188;-77
2022/05/01 03:17:19;;;;;;;61.17;35.17;;;;;;;7.07;100.00;95953.25;4978723;28;20202;-78
2022/05/01 03:22:30;;;;;;;65.67;38.47;;;;;;;7.10;100.00;95950.41;4995312;28;20182;-78
2022/05/01 03:24:55;;;;;;;76.10;38.00;;;;;;;7.09;100.00;95953.94;4977974;28;20234;-78
2022/05/01 03:27:21;;;;;;;66.20;37.77;;;;;;;7.03;100.00;95944.06;4978223;28;20176;-76
2022/05/01 03:30:15;;;;;;;61.77;36.83;;;;;;;7.01;100.00;95950.31;4978115;28;20204;-78
2022/05/01 03:32:31;;;;;;;66.83;37.43;;;;;;;6.98;100.00;95946.19;4978791;28;20251;-78
2022/05/01 03:34:57;;;;;;;77.23;39.57;;;;;;;7.01;100.00;95945.94;4980585;28;20236;-76
2022/05/01 03:37:22;;;;;;;59.63;36.97;;;;;;;7.03;100.00;95941.50;4980328;28;20259;-78
2022/05/01 03:39:47;;;;;;;71.03;38.47;;;;;;;6.99;100.00;95940.09;4977319;28;20200;-77
2022/05/01 03:42:13;;;;;;;66.47;37.67;;;;;;;6.96;100.00;95937.72;4977594;28;20540;-78
2022/05/01 03:44:38;;;;;;;63.37;37.17;;;;;;;6.99;100.00;95937.50;4977401;28;20271;-77
2022/05/01 03:47:03;;;;;;;67.40;37.97;;;;;;;6.95;100.00;95943.81;4977781;28;20326;-78
2022/05/01 03:49:29;;;;;;;63.53;35.90;;;;;;;6.95;100.00;95941.25;4977446;28;20208;-77
2022/05/01 03:51:54;;;;;;;68.90;36.63;;;;;;;6.96;100.00;95940.31;4976927;28;20172;-77
2022/05/01 03:54:20;;;;;;;62.70;37.00;;;;;;;6.91;100.00;95945.00;4977177;28;20227;-77
2022/05/01 03:56:45;;;;;;;66.17;36.67;;;;;;;6.93;100.00;95950.88;4977843;28;20175;-78
2022/05/01 03:59:10;;;;;;;57.93;36.13;;;;;;;6.93;100.00;95952.63;4961178;28;20231;-77
2022/05/01 04:01:35;;;;;;;56.33;34.87;;;;;;;6.98;100.00;95946.19;4976694;28;20176;-77
2022/05/01 04:04:01;;;;;;;62.27;36.63;;;;;;;7.00;100.00;95946.06;4977128;28;20176;-78
2022/05/01 04:06:26;;;;;;;60.43;39.67;;;;;;;7.05;100.00;95952.50;4994919;28;20637;-78
2022/05/01 04:08:52;;;;;;;62.30;41.27;;;;;;;7.07;100.00;95950.66;4977150;28;20199;-78
2022/05/01 04:11:17;;;;;;;61.70;37.80;;;;;;;7.10;100.00;95952.19;4976660;28;20183;-77
2022/05/01 04:13:43;;;;;;;59.77;37.33;;;;;;;7.04;100.00;95953.47;4977358;28;20206;-77
2022/05/01 04:16:08;;;;;;;52.57;33.43;;;;;;;7.07;100.00;95957.59;4977488;28;20179;-78
2022/05/01 04:18:34;;;;;;;59.17;35.43;;;;;;;6.89;100.00;95954.63;4977131;28;20291;-78
2022/05/01 04:21:01;;;;;;;49.67;33.50;;;;;;;6.94;100.00;95944.78;4977120;28;20839;-78
2022/05/01 04:23:26;;;;;;;52.83;34.27;;;;;;;6.92;100.00;95953.56;4960616;28;20176;-77
2022/05/01 04:25:51;;;;;;;57.90;34.23;;;;;;;6.96;100.00;95945.47;4976634;28;20187;-77
2022/05/01 04:28:17;;;;;;;53.43;31.77;;;;;;;6.84;100.00;95950.75;4976787;28;20676;-77
2022/05/01 04:30:42;;;;;;;55.17;34.50;;;;;;;6.83;100.00;95955.09;4958944;28;20176;-77
2022/05/01 04:33:16;;;;;;;56.73;35.03;;;;;;;6.71;100.00;95955.97;4975596;28;20684;-77
2022/05/01 04:35:50;;;;;;;54.90;34.87;;;;;;;6.81;100.00;95954.38;4976938;28;20230;-77
2022/05/01 04:38:17;;;;;;;50.67;31.20;;;;;;;6.92;100.00;95954.41;4960498;28;20282;-77
2022/05/01 04:40:45;;;;;;;55.07;33.30;;;;;;;6.83;100.00;95965.41;4960328;28;20326;-77
2022/05/01 04:43:17;;;;;;;59.57;35.37;;;;;;;6.93;100.00;95966.38;4991725;28;20645;-77
2022/05/01 04:45:43;;;;;;;56.10;33.57;;;;;;;6.95;100.00;95959.31;4976528;28;20172;-77
2022/05/01 04:48:10;;;;;;;55.93;34.43;;;;;;;6.94;100.00;95964.59;4960611;28;20280;-78
2022/05/01 04:50:35;;;;;;;53.40;34.17;;;;;;;6.85;100.00;95967.88;4977115;28;20655;-78
2022/05/01 04:53:02;;;;;;;51.27;33.93;;;;;;;6.89;100.00;95969.28;4959828;28;20282;-78
2022/05/01 04:55:30;;;;;;;56.80;33.47;;;;;;;6.85;100.00;95971.28;4977064;28;20183;-78
2022/05/01 04:57:56;;;;;;;56.57;35.40;;;;;;;6.90;100.00;95961.44;4976552;28;20183;-78
2022/05/01 05:00:21;;;;;;;57.77;34.70;;;;;;;6.94;100.00;95965.41;4976645;28;20262;-77
2022/05/01 05:02:52;;;;;;;56.43;33.87;;;;;;;6.93;100.00;95981.84;4960107;28;20275;-78
2022/05/01 05:05:18;;;;;;;57.70;34.73;;;;;;;6.95;100.00;95979.97;4960168;28;20171;-78
2022/05/01 05:07:44;;;;;;;56.73;34.67;;;;;;;6.99;100.00;95975.41;4976581;28;20175;-79
2022/05/01 05:10:10;;;;;;;58.33;35.90;;;;;;;7.00;100.00;95972.72;4976589;28;20566;-77
2022/05/01 05:12:37;;;;;;;61.97;36.30;;;;;;;7.02;100.00;95985.50;4959222;28;20693;-78
2022/05/01 05:15:04;;;;;;;59.40;35.30;;;;;;;7.08;100.00;95979.88;4994260;28;20172;-78
2022/05/01 05:17:31;;;;;;;58.80;35.67;;;;;;;7.10;100.00;95986.56;4960883;28;20291;-78
2022/05/01 05:19:57;;;;;;;56.30;35.13;;;;;;;7.08;100.00;95983.28;4994212;28;20196;-79
2022/05/01 05:22:22;;;;;;;56.20;34.63;;;;;;;7.18;100.00;95985.19;4976074;28;20182;-78
2022/05/01 05:24:48;;;;;;;57.50;34.13;;;;;;;7.17;100.00;95988.72;4976420;28;20191;-78
2022/05/01 05:27:13;;;;;;;55.47;35.43;;;;;;;7.27;100.00;95992.22;4976762;28;20187;-78
2022/05/01 05:29:39;;;;;;;52.37;32.40;;;;;;;7.43;100.00;95986.72;4976208;28;20192;-77
2022/05/01 05:32:05;;;;;;;53.53;33.37;;;;;;;7.39;100.00;95991.28;4958862;28;20183;-79
2022/05/01 05:34:31;;;;;;;53.37;33.67;;;;;;;7.44;100.00;95990.94;4976502;28;20243;-79
2022/05/01 05:36:56;;;;;;;51.50;32.10;;;;;;;7.51;100.00;95995.53;4976306;28;20274;-78
2022/05/01 05:39:21;;;;;;;51.50;31.57;;;;;;;7.50;100.00;95988.69;4976567;28;20231;-79
2022/05/01 05:41:47;;;;;;;53.43;33.30;;;;;;;7.46;100.00;95983.91;4975834;28;20286;-79
2022/05/01 05:44:12;;;;;;;54.53;33.27;;;;;;;7.52;100.00;95991.19;4976153;28;20176;-78
2022/05/01 05:46:37;;;;;;;55.47;33.97;;;;;;;7.63;100.00;95984.25;4976242;28;20194;-78
2022/05/01 05:49:03;;;;;;;52.13;32.07;;;;;;;7.73;100.00;95992.09;4993774;28;20208;-78
2022/05/01 05:51:28;;;;;;;47.00;31.57;;;;;;;7.75;100.00;95987.63;4975338;28;20187;-78
2022/05/01 05:53:53;;;;;;;50.43;33.17;;;;;;;7.82;100.00;95995.72;4976803;28;20721;-79
2022/05/01 05:56:19;;;;;;;53.10;33.00;;;;;;;7.92;100.00;95997.47;4960342;28;20194;-79
2022/05/01 05:58:44;;;;;;;51.33;30.97;;;;;;;7.92;100.00;95994.06;4960008;28;20622;-78
2022/05/01 06:01:10;;;;;;;48.17;31.37;;;;;;;7.99;100.00;96000.41;4975858;28;20271;-76
2022/05/01 06:03:36;;;;;;;41.53;28.53;;;;;;;8.08;99.73;96002.28;4993231;28;20179;-78
2022/05/01 06:06:02;;;;;;;44.00;29.80;;;;;;;8.04;98.99;95995.72;4959977;28;20234;-78
2022/05/01 06:08:27;;;;;;;43.80;29.60;;;;;;;8.06;97.51;96003.34;4960045;28;20207;-77
2022/05/01 06:10:52;;;;;;;49.57;29.87;;;;;;;8.01;97.95;96008.88;4975890;28;20186;-78
2022/05/01 06:13:17;;;;;;;40.23;28.53;;;;;;;7.95;98.10;96002.44;4992928;28;20211;-78
2022/05/01 06:15:43;;;;;;;44.53;28.17;;;;;;;7.69;98.73;96008.81;4976169;28;20180;-77
2022/05/01 06:18:10;;;;;;;43.63;27.77;;;;;;;7.78;99.12;96004.69;4993651;28;20230;-78
2022/05/01 06:20:36;;;;;;;45.60;29.40;;;;;;;7.89;99.28;96009.84;4976158;28;20176;-77
2022/05/01 06:23:01;;;;;;;47.57;30.07;;;;;;;7.84;98.21;96009.34;4975931;28;20644;-76
2022/05/01 06:25:26;;;;;;;43.07;28.80;;;;;;;7.73;98.47;96004.22;4980144;28;20183;-77
2022/05/01 06:27:52;;;;;;;44.40;29.17;;;;;;;7.84;98.35;96011.94;4979914;28;20641;-78
2022/05/01 06:30:17;;;;;;;41.00;27.10;;;;;;;7.65;99.43;96015.13;4997764;28;20176;-77
2022/05/01 06:32:43;;;;;;;38.67;24.47;;;;;;;7.82;97.20;96014.66;4994403;28;20219;-77
2022/05/01 06:35:08;;;;;;;38.67;23.97;;;;;;;7.90;97.38;96011.47;4980147;28;20267;-78
2022/05/01 06:37:35;;;;;;;42.07;28.07;;;;;;;7.83;97.75;96018.06;4961706;28;20388;-78
2022/05/01 06:40:00;;;;;;;43.27;28.80;;;;;;;7.96;97.62;96018.75;4977709;28;20290;-78
2022/05/01 06:42:25;;;;;;;45.83;27.67;;;;;;;8.01;97.97;96015.81;4977952;28;20275;-78
2022/05/01 06:44:50;;;;;;;39.40;27.03;;;;;;;7.85;98.50;96014.41;4961766;28;20191;-78
2022/05/01 06:47:16;;;;;;;38.67;26.07;;;;;;;7.84;99.26;96015.34;4962782;28;20184;-79
2022/05/01 06:49:41;;;;;;;38.00;26.57;;;;;;;7.88;99.12;96005.59;4979484;28;20227;-78
2022/05/01 06:52:06;;;;;;;38.53;24.30;;;;;;;7.99;98.70;96013.34;4979185;28;20203;-78
2022/05/01 06:54:32;;;;;;;39.80;25.90;;;;;;;8.00;98.43;96006.41;4996987;28;20215;-79
2022/05/01 06:56:57;;;;;;;40.87;26.90;;;;;;;8.15;98.27;96010.38;4980515;28;20180;-78
2022/05/01 06:59:22;;;;;;;43.53;27.33;;;;;;;8.23;98.30;96006.25;4979029;28;20207;-77
2022/05/01 07:01:47;;;;;;;38.33;24.40;;;;;;;8.31;97.76;96012.56;4978785;28;20183;-77
2022/05/01 07:04:13;;;;;;;35.93;24.80;;;;;;;8.37;96.78;96017.28;4978687;28;20195;-77
2022/05/01 07:06:40;;;;;;;33.10;23.47;;;;;;;8.48;95.57;96019.81;4979559;28;20211;-77
2022/05/01 07:09:05;;;;;;;32.13;23.00;;;;;;;8.45;94.49;96020.06;4979589;28;20572;-77
2022/05/01 07:11:31;;;;;;;32.03;22.10;;;;;;;8.71;94.55;96012.78;4978129;28;20192;-78
2022/05/01 07:13:56;;;;;;;35.47;24.07;;;;;;;8.59;94.19;96024.97;4962426;28;20212;-77
2022/05/01 07:16:22;;;;;;;34.63;24.17;;;;;;;8.80;94.60;96015.44;4975031;28;20203;-77
2022/05/01 07:18:47;;;;;;;33.60;23.77;;;;;;;8.71;94.10;96012.78;4981757;28;20211;-79
2022/05/01 07:21:12;;;;;;;30.33;23.23;;;;;;;8.57;92.53;96013.94;4978835;28;20213;-78
2022/05/01 07:23:38;;;;;;;28.27;21.37;;;;;;;8.75;92.93;96003.84;4997055;28;20183;-78
2022/05/01 07:26:03;;;;;;;28.43;21.13;;;;;;;9.02;90.71;96016.28;5015095;28;20206;-79
2022/05/01 07:28:28;;;;;;;32.07;22.87;;;;;;;8.82;92.04;96007.56;4997125;28;20221;-77
2022/05/01 07:30:54;;;;;;;32.73;22.13;;;;;;;8.90;92.50;96004.34;4980538;28;20190;-79
2022/05/01 07:33:19;;;;;;;25.87;19.53;;;;;;;9.01;90.68;96012.03;4996473;28;20222;-79
2022/05/01 07:35:46;;;;;;;29.17;20.47;;;;;;;8.99;89.41;96013.94;4980520;28;20187;-79
2022/05/01 07:38:11;;;;;;;27.37;20.13;;;;;;;9.27;89.73;96009.88;4989541;28;20204;-81
2022/05/01 07:40:37;;;;;;;25.23;19.17;;;;;;;9.45;88.09;96010.09;4960251;28;20540;-83
2022/05/01 07:43:03;;;;;;;25.00;19.60;;;;;;;9.36;88.21;96006.50;4976915;28;20211;-81
2022/05/01 07:45:28;;;;;;;25.33;19.13;;;;;;;9.66;86.75;96008.31;4962693;28;20179;-83
2022/05/01 07:47:54;;;;;;;29.30;21.03;;;;;;;9.67;86.68;96003.94;4979101;28;20188;-81
2022/05/01 07:50:20;;;;;;;24.53;18.77;;;;;;;9.76;84.91;96009.16;4963518;28;20195;-79
2022/05/01 07:52:45;;;;;;;20.37;15.70;;;;;;;9.89;82.98;96004.56;4962103;28;20200;-79
2022/05/01 07:55:11;;;;;;;17.73;14.43;;;;;;;10.31;78.61;96004.41;4978561;28;20188;-79
2022/05/01 07:57:36;;;;;;;17.80;14.20;;;;;;;10.40;80.76;96011.38;4978714;28;20262;-80
2022/05/01 08:00:02;;;;;;;18.37;15.03;;;;;;;11.16;77.21;96005.47;4978927;28;20199;-80
2022/05/01 08:04:27;;;;;;;21.43;16.53;;;;;;;10.80;78.56;96002.66;4977026;28;20266;-80
2022/05/01 08:05:23;;;;;;;20.73;15.63;;;;;;;11.07;79.06;96001.94;4990943;28;20192;-78
2022/05/01 08:07:48;;;;;;;20.60;16.27;;;;;;;11.43;76.58;96004.72;4995107;28;20268;-78
2022/05/01 08:10:13;;;;;;;19.73;15.37;;;;;;;11.54;73.49;96002.75;4978883;28;20184;-79
2022/05/01 08:12:39;;;;;;;16.90;13.00;;;;;;;11.08;76.28;95998.38;4962419;28;20211;-79
2022/05/01 08:15:04;;;;;;;17.07;13.50;;;;;;;11.60;71.98;95989.19;4979585;28;20278;-79
2022/05/01 08:17:30;;;;;;;17.67;13.70;;;;;;;11.51;73.96;96000.47;4995289;28;20189;-79
2022/05/01 08:22:41;;;;;;;15.17;11.70;;;;;;;12.45;71.49;96005.47;4977408;28;20184;-79
2022/05/01 08:25:07;;;;;;;15.90;13.37;;;;;;;12.49;70.01;96006.81;4980108;28;20601;-78
2022/05/01 08:27:32;;;;;;;13.47;11.87;;;;;;;12.73;66.39;96006.25;5010037;28;20183;-78
2022/05/01 08:29:57;;;;;;;11.33;9.97;;;;;;;12.79;65.29;95999.59;4995464;28;20205;-78
2022/05/01 08:32:23;;;;;;;16.13;10.57;;;;;;;12.67;65.08;96001.63;4977008;28;20187;-78
2022/05/01 08:34:49;;;;;;;13.87;12.47;;;;;;;12.25;65.70;96006.56;4961336;28;20190;-79
2022/05/01 08:37:14;;;;;;;13.40;10.30;;;;;;;12.76;63.84;96003.31;4962130;28;20175;-79
2022/05/01 08:39:39;;;;;;;11.47;10.27;;;;;;;12.89;61.40;96003.75;4961220;28;20278;-79
2022/05/01 08:42:05;;;;;;;13.23;11.50;;;;;;;12.65;64.38;95999.16;4977269;28;20184;-79
2022/05/01 08:44:32;;;;;;;16.27;11.53;;;;;;;12.83;63.68;96000.94;4977908;28;20207;-79
2022/05/01 08:47:22;;;;;;;12.80;10.63;;;;;;;12.91;63.13;95996.63;4960057;28;20183;-81
2022/05/01 08:49:48;;;;;;;15.13;11.47;;;;;;;13.39;61.38;95999.75;4976335;28;20207;-79
2022/05/01 08:52:14;;;;;;;10.43;9.33;;;;;;;13.42;59.63;95999.44;4992182;28;20203;-80
2022/05/01 08:54:39;;;;;;;12.10;9.80;;;;;;;13.64;60.42;95996.31;4976560;28;20767;-79
2022/05/01 08:57:05;;;;;;;13.53;10.57;;;;;;;13.69;58.76;96001.03;4959873;28;20525;-78
2022/05/01 08:59:31;;;;;;;12.13;10.67;;;;;;;13.12;61.71;95998.06;4976288;28;20286;-77
2022/05/01 09:01:58;;;;;;;12.00;9.30;;;;;;;13.31;61.40;96003.94;4975468;28;20176;-79
2022/05/01 09:04:24;;;;;;;12.07;10.03;;;;;;;13.21;59.97;96003.22;4958717;28;20168;-78
2022/05/01 09:06:50;;;;;;;12.87;9.60;;;;;;;13.50;60.02;95999.47;4975484;28;20656;-79
2022/05/01 09:09:20;;;;;;;12.60;10.43;;;;;;;13.96;56.63;95998.25;4959635;28;20191;-78
2022/05/01 09:14:29;;;;;;;11.80;9.97;;;;;;;13.95;60.18;95998.38;4978657;28;20239;-81
2022/05/01 09:17:27;;;;;;;10.40;9.30;;;;;;;13.87;58.26;95999.19;4976802;28;20191;-79
2022/05/01 09:20:04;;;;;;;11.07;9.83;;;;;;;13.91;57.46;95999.69;4914267;29;20226;-80
2022/05/01 09:22:47;;;;;;;12.63;9.77;;;;;;;13.57;58.81;95995.28;4895075;29;20218;-77
2022/05/01 09:25:16;;;;;;;10.07;8.97;;;;;;;13.39;58.52;95997.13;4894761;29;20194;-79
2022/05/01 09:27:41;;;;;;;12.40;8.80;;;;;;;13.67;57.94;95997.78;4894854;29;20191;-77
2022/05/01 09:30:11;;;;;;;13.20;11.07;;;;;;;13.53;58.50;96002.63;4895083;29;20211;-78
2022/05/01 09:32:39;;;;;;;11.90;10.07;;;;;;;13.95;56.92;96006.22;4909254;29;20277;-79
2022/05/01 09:35:06;;;;;;;12.80;10.70;;;;;;;13.14;58.48;96007.38;4915129;29;20596;-77
2022/05/01 09:37:31;;;;;;;14.80;12.60;;;;;;;12.89;59.29;96002.94;4898297;29;20286;-80
2022/05/01 09:39:56;;;;;;;13.67;10.30;;;;;;;13.51;58.08;96003.72;4898662;29;20682;-80
2022/05/01 09:42:25;;;;;;;11.00;9.50;;;;;;;13.20;59.23;95995.56;4913695;29;20191;-79
2022/05/01 09:45:11;;;;;;;11.50;9.70;;;;;;;13.23;58.85;96001.28;4898008;29;20238;-79
2022/05/01 09:47:41;;;;;;;13.27;10.90;;;;;;;13.02;59.39;96003.38;4923071;29;20648;-78
2022/05/01 09:50:08;;;;;;;12.83;9.33;;;;;;;13.21;57.05;96008.44;4901252;29;20249;-77
2022/05/01 09:52:56;;;;;;;12.70;9.93;;;;;;;13.14;58.40;96009.16;4891803;29;20191;-78
2022/05/01 09:55:22;;;;;;;11.30;9.37;;;;;;;13.33;57.26;96009.00;4945344;28;20196;-78
2022/05/01 09:57:47;;;;;;;11.13;9.67;;;;;;;12.91;59.74;96001.03;4971592;28;20177;-78
2022/05/01 10:00:13;;;;;;;12.67;10.30;;;;;;;12.98;60.03;96007.25;4992006;28;20194;-77
2022/05/01 10:02:38;;;;;;;10.97;8.93;;;;;;;12.64;59.48;96013.16;4997831;28;20245;-79
2022/05/01 10:05:06;;;;;;;9.90;8.90;;;;;;;13.28;57.35;96011.25;4980750;28;20187;-79
2022/05/01 10:07:38;;;;;;;12.00;9.87;;;;;;;13.23;56.44;96009.09;4980795;28;20258;-79
2022/05/01 10:10:08;;;;;;;11.07;8.30;;;;;;;13.26;57.12;96010.59;4981288;28;20246;-79
2022/05/01 10:12:39;;;;;;;11.43;8.30;;;;;;;13.26;57.24;96019.25;4981092;28;20186;-79
2022/05/01 10:15:06;;;;;;;10.10;8.80;;;;;;;13.16;57.87;96015.84;4980898;28;20620;-81
2022/05/01 10:17:32;;;;;;;11.63;9.27;;;;;;;13.26;57.79;96005.38;4981625;28;20599;-79
2022/05/01 10:19:57;;;;;;;11.90;10.20;;;;;;;13.03;58.37;96002.41;4965568;28;20203;-79
2022/05/01 10:22:23;;;;;;;11.27;9.20;;;;;;;13.03;58.46;95997.19;4981390;28;20551;-82
2022/05/01 10:24:49;;;;;;;10.90;8.63;;;;;;;13.01;57.22;96007.78;4981318;28;20172;-81
2022/05/01 10:27:31;;;;;;;10.13;8.03;;;;;;;13.03;57.75;96005.00;4981446;28;20242;-80
2022/05/01 10:33:09;;;;;;;9.23;8.33;;;;;;;13.81;56.93;96008.47;4998911;28;20222;-80
2022/05/01 10:36:05;;;;;;;12.07;9.07;;;;;;;14.04;53.82;96002.66;4964414;28;20187;-81
2022/05/01 10:38:41;;;;;;;11.70;8.67;;;;;;;14.09;52.84;95998.63;4981884;28;20246;-80
2022/05/01 10:41:08;;;;;;;11.93;9.63;;;;;;;13.98;54.01;95991.06;4981507;28;20249;-80
2022/05/01 10:43:38;;;;;;;11.60;9.13;;;;;;;13.77;54.99;95996.69;4982915;28;20218;-81
2022/05/01 10:46:05;;;;;;;15.20;10.73;;;;;;;13.94;55.15;95987.13;4984604;28;20187;-82
2022/05/01 10:48:37;;;;;;;11.17;9.00;;;;;;;14.25;53.46;95994.44;4983502;28;20235;-81
2022/05/01 10:51:42;;;;;;;10.97;8.63;;;;;;;13.86;53.00;95987.91;4983600;28;20259;-81
2022/05/01 10:54:10;;;;;;;11.80;9.13;;;;;;;14.44;51.53;95992.34;4940637;29;20289;-81
2022/05/01 10:56:36;;;;;;;13.27;9.97;;;;;;;14.60;51.00;95983.75;4924406;29;20199;-81
2022/05/01 10:59:28;;;;;;;11.53;9.03;;;;;;;14.59;52.40;95989.97;4940305;29;20212;-81
2022/05/01 11:01:54;;;;;;;11.23;9.17;;;;;;;14.22;52.43;95981.66;4923810;29;20196;-81
2022/05/01 11:04:21;;;;;;;9.60;8.57;;;;;;;14.64;53.13;95973.78;4939916;29;20229;-81
2022/05/01 11:06:50;;;;;;;10.63;9.43;;;;;;;14.76;51.64;95979.53;4940003;29;20182;-81
2022/05/01 11:09:19;;;;;;;12.03;8.70;;;;;;;14.71;50.77;95972.16;4939804;29;20233;-81
2022/05/01 11:11:45;;;;;;;9.20;8.30;;;;;;;14.77;49.78;95975.94;4935241;29;20186;-81
2022/05/01 11:14:13;;;;;;;9.80;8.47;;;;;;;13.96;54.15;95971.31;4920580;29;20206;-80
2022/05/01 11:16:49;;;;;;;9.63;8.60;;;;;;;14.27;53.87;95976.78;4936574;29;20190;-81
2022/05/01 11:19:15;;;;;;;9.50;8.13;;;;;;;14.80;52.81;95980.81;4936803;29;20213;-81
2022/05/01 11:21:40;;;;;;;9.50;8.50;;;;;;;14.93;50.49;95976.75;4936587;29;20236;-78
2022/05/01 11:24:07;;;;;;;8.83;7.90;;;;;;;15.26;49.62;95972.28;4905230;29;20209;-81
2022/05/01 11:26:33;;;;;;;9.67;8.67;;;;;;;14.66;51.76;95972.63;4920807;29;20215;-79
2022/05/01 11:29:10;;;;;;;8.87;7.93;;;;;;;14.95;50.53;95969.56;4949369;28;20235;-79
2022/05/01 11:31:35;;;;;;;10.17;8.70;;;;;;;14.34;53.26;95969.97;4963021;28;20194;-80
2022/05/01 11:34:15;;;;;;;12.50;9.70;;;;;;;15.09;53.38;95968.06;4996653;28;20203;-80
2022/05/01 11:37:03;;;;;;;13.23;9.13;;;;;;;15.26;53.64;95961.00;4993220;28;20183;-80
2022/05/01 11:39:46;;;;;;;10.20;7.97;;;;;;;15.99;50.84;95968.69;4978180;28;20223;-79
2022/05/01 11:42:24;;;;;;;9.93;8.40;;;;;;;15.97;50.18;95968.00;4994135;28;20183;-80